sensor_id;sensor_type;location;lat;lon;timestamp;P1;durP1;ratioP1;P2;durP2;ratioP2
76610;SDS011;65503;48.534;9.062;2023-02-23T00:01:52;25.80;;;14.95;;
76610;SDS011;65503;48.534;9.062;2023-02-23T00:04:20;32.85;;;17.38;;
76610;SDS011;65503;48.534;9.062;2023-02-23T00:06:48;28.15;;;16.50;;
76610;SDS011;65503;48.534;9.062;2023-02-23T00:09:17;31.65;;;15.90;;
76610;SDS011;65503;48.534;9.062;2023-02-23T00:11:50;33.08;;;17.45;;
76610;SDS011;65503;48.534;9.062;2023-02-23T00:14:18;34.97;;;18.65;;
76610;SDS011;65503;48.534;9.062;2023-02-23T00:16:44;33.40;;;18.33;;
76610;SDS011;65503;48.534;9.062;2023-02-23T00:19:11;36.13;;;18.80;;
76610;SDS011;65503;48.534;9.062;2023-02-23T00:21:39;33.85;;;18.58;;
76610;SDS011;65503;48.534;9.062;2023-02-23T00:24:07;34.30;;;18.98;;
76610;SDS011;65503;48.534;9.062;2023-02-23T00:26:40;37.58;;;19.38;;
76610;SDS011;65503;48.534;9.062;2023-02-23T00:29:14;34.65;;;18.30;;
76610;SDS011;65503;48.534;9.062;2023-02-23T00:31:43;37.17;;;19.58;;
76610;SDS011;65503;48.534;9.062;2023-02-23T00:34:11;34.22;;;18.55;;
76610;SDS011;65503;48.534;9.062;2023-02-23T00:36:39;32.92;;;17.98;;
76610;SDS011;65503;48.534;9.062;2023-02-23T00:39:09;32.42;;;17.75;;
76610;SDS011;65503;48.534;9.062;2023-02-23T00:41:54;33.38;;;19.42;;
76610;SDS011;65503;48.534;9.062;2023-02-23T00:44:21;35.72;;;19.08;;
76610;SDS011;65503;48.534;9.062;2023-02-23T00:46:49;36.35;;;18.33;;
76610;SDS011;65503;48.534;9.062;2023-02-23T00:49:17;34.72;;;19.05;;
76610;SDS011;65503;48.534;9.062;2023-02-23T00:51:45;40.45;;;20.15;;
76610;SDS011;65503;48.534;9.062;2023-02-23T00:54:13;39.08;;;20.17;;
76610;SDS011;65503;48.534;9.062;2023-02-23T00:56:41;40.13;;;20.98;;
76610;SDS011;65503;48.534;9.062;2023-02-23T00:59:08;40.38;;;21.55;;
76610;SDS011;65503;48.534;9.062;2023-02-23T01:01:35;37.92;;;19.92;;
76610;SDS011;65503;48.534;9.062;2023-02-23T01:04:03;43.42;;;20.52;;
76610;SDS011;65503;48.534;9.062;2023-02-23T01:06:30;42.03;;;20.83;;
76610;SDS011;65503;48.534;9.062;2023-02-23T01:08:56;34.42;;;16.60;;
76610;SDS011;65503;48.534;9.062;2023-02-23T01:11:25;41.58;;;19.33;;
76610;SDS011;65503;48.534;9.062;2023-02-23T01:13:57;42.88;;;18.83;;
76610;SDS011;65503;48.534;9.062;2023-02-23T01:16:26;36.30;;;19.38;;
76610;SDS011;65503;48.534;9.062;2023-02-23T01:18:55;37.00;;;19.10;;
76610;SDS011;65503;48.534;9.062;2023-02-23T01:21:27;38.83;;;19.05;;
76610;SDS011;65503;48.534;9.062;2023-02-23T01:24:02;35.72;;;18.27;;
76610;SDS011;65503;48.534;9.062;2023-02-23T01:26:30;37.70;;;20.17;;
76610;SDS011;65503;48.534;9.062;2023-02-23T01:29:00;40.03;;;18.15;;
76610;SDS011;65503;48.534;9.062;2023-02-23T01:31:28;37.55;;;19.48;;
76610;SDS011;65503;48.534;9.062;2023-02-23T01:33:56;42.03;;;21.23;;
76610;SDS011;65503;48.534;9.062;2023-02-23T01:36:25;39.67;;;19.10;;
76610;SDS011;65503;48.534;9.062;2023-02-23T01:38:54;38.70;;;18.98;;
76610;SDS011;65503;48.534;9.062;2023-02-23T01:41:22;30.77;;;16.63;;
76610;SDS011;65503;48.534;9.062;2023-02-23T01:44:01;33.95;;;18.30;;
76610;SDS011;65503;48.534;9.062;2023-02-23T01:46:35;33.85;;;17.52;;
76610;SDS011;65503;48.534;9.062;2023-02-23T01:49:04;37.50;;;19.42;;
76610;SDS011;65503;48.534;9.062;2023-02-23T01:51:52;33.30;;;17.08;;
76610;SDS011;65503;48.534;9.062;2023-02-23T01:54:29;32.70;;;17.80;;
76610;SDS011;65503;48.534;9.062;2023-02-23T01:56:59;33.90;;;18.27;;
76610;SDS011;65503;48.534;9.062;2023-02-23T01:59:31;32.55;;;15.77;;
76610;SDS011;65503;48.534;9.062;2023-02-23T02:02:00;31.63;;;15.88;;
76610;SDS011;65503;48.534;9.062;2023-02-23T02:04:30;34.60;;;16.20;;
76610;SDS011;65503;48.534;9.062;2023-02-23T02:07:09;30.75;;;14.10;;
76610;SDS011;65503;48.534;9.062;2023-02-23T02:09:41;32.15;;;14.77;;
76610;SDS011;65503;48.534;9.062;2023-02-23T02:12:29;32.78;;;14.60;;
76610;SDS011;65503;48.534;9.062;2023-02-23T02:14:55;31.02;;;13.88;;
76610;SDS011;65503;48.534;9.062;2023-02-23T02:17:28;26.95;;;14.15;;
76610;SDS011;65503;48.534;9.062;2023-02-23T02:20:56;27.48;;;12.70;;
76610;SDS011;65503;48.534;9.062;2023-02-23T02:23:06;32.97;;;14.35;;
76610;SDS011;65503;48.534;9.062;2023-02-23T02:26:04;33.92;;;15.05;;
76610;SDS011;65503;48.534;9.062;2023-02-23T02:31:48;37.33;;;16.30;;
76610;SDS011;65503;48.534;9.062;2023-02-23T02:34:47;35.65;;;15.55;;
76610;SDS011;65503;48.534;9.062;2023-02-23T02:43:06;42.58;;;21.95;;
76610;SDS011;65503;48.534;9.062;2023-02-23T02:45:43;41.47;;;20.75;;
76610;SDS011;65503;48.534;9.062;2023-02-23T02:50:44;46.85;;;21.50;;
76610;SDS011;65503;48.534;9.062;2023-02-23T02:53:22;45.33;;;21.92;;
76610;SDS011;65503;48.534;9.062;2023-02-23T02:56:01;45.95;;;21.73;;
76610;SDS011;65503;48.534;9.062;2023-02-23T02:58:30;43.55;;;22.65;;
76610;SDS011;65503;48.534;9.062;2023-02-23T03:03:50;42.03;;;21.10;;
76610;SDS011;65503;48.534;9.062;2023-02-23T03:06:45;37.00;;;19.80;;
76610;SDS011;65503;48.534;9.062;2023-02-23T03:09:53;45.00;;;23.02;;
76610;SDS011;65503;48.534;9.062;2023-02-23T03:12:57;35.60;;;19.65;;
76610;SDS011;65503;48.534;9.062;2023-02-23T03:19:18;42.47;;;20.33;;
76610;SDS011;65503;48.534;9.062;2023-02-23T03:22:10;36.08;;;17.98;;
76610;SDS011;65503;48.534;9.062;2023-02-23T03:24:58;35.67;;;15.90;;
76610;SDS011;65503;48.534;9.062;2023-02-23T03:28:05;32.47;;;17.35;;
76610;SDS011;65503;48.534;9.062;2023-02-23T03:34:19;35.80;;;18.73;;
76610;SDS011;65503;48.534;9.062;2023-02-23T03:37:19;33.65;;;17.45;;
76610;SDS011;65503;48.534;9.062;2023-02-23T03:40:14;33.30;;;17.77;;
76610;SDS011;65503;48.534;9.062;2023-02-23T03:43:05;37.63;;;18.30;;
76610;SDS011;65503;48.534;9.062;2023-02-23T03:45:55;49.78;;;23.13;;
76610;SDS011;65503;48.534;9.062;2023-02-23T03:48:42;34.55;;;18.33;;
76610;SDS011;65503;48.534;9.062;2023-02-23T03:51:30;35.13;;;17.75;;
76610;SDS011;65503;48.534;9.062;2023-02-23T03:54:30;47.85;;;22.08;;
76610;SDS011;65503;48.534;9.062;2023-02-23T03:57:20;49.15;;;24.08;;
76610;SDS011;65503;48.534;9.062;2023-02-23T04:00:10;48.05;;;25.65;;
76610;SDS011;65503;48.534;9.062;2023-02-23T04:03:01;51.92;;;25.08;;
76610;SDS011;65503;48.534;9.062;2023-02-23T04:05:49;54.03;;;24.98;;
76610;SDS011;65503;48.534;9.062;2023-02-23T04:08:38;49.70;;;23.02;;
76610;SDS011;65503;48.534;9.062;2023-02-23T04:14:22;52.25;;;23.63;;
76610;SDS011;65503;48.534;9.062;2023-02-23T04:16:56;49.63;;;25.83;;
76610;SDS011;65503;48.534;9.062;2023-02-23T04:19:25;57.17;;;26.20;;
76610;SDS011;65503;48.534;9.062;2023-02-23T04:21:53;50.70;;;24.77;;
76610;SDS011;65503;48.534;9.062;2023-02-23T04:24:20;47.35;;;24.75;;
76610;SDS011;65503;48.534;9.062;2023-02-23T04:26:46;50.42;;;24.77;;
76610;SDS011;65503;48.534;9.062;2023-02-23T04:29:13;52.97;;;23.67;;
76610;SDS011;65503;48.534;9.062;2023-02-23T04:31:39;48.30;;;23.45;;
76610;SDS011;65503;48.534;9.062;2023-02-23T04:34:06;48.08;;;22.98;;
76610;SDS011;65503;48.534;9.062;2023-02-23T04:36:33;42.10;;;23.40;;
76610;SDS011;65503;48.534;9.062;2023-02-23T04:39:00;41.75;;;21.77;;
76610;SDS011;65503;48.534;9.062;2023-02-23T04:41:26;44.33;;;23.80;;
76610;SDS011;65503;48.534;9.062;2023-02-23T04:43:53;44.83;;;23.67;;
76610;SDS011;65503;48.534;9.062;2023-02-23T04:46:19;46.72;;;23.80;;
76610;SDS011;65503;48.534;9.062;2023-02-23T04:48:45;43.05;;;22.48;;
76610;SDS011;65503;48.534;9.062;2023-02-23T04:51:12;47.83;;;25.05;;
76610;SDS011;65503;48.534;9.062;2023-02-23T04:53:38;42.65;;;22.27;;
76610;SDS011;65503;48.534;9.062;2023-02-23T04:56:05;41.85;;;22.35;;
76610;SDS011;65503;48.534;9.062;2023-02-23T04:58:32;43.97;;;21.98;;
76610;SDS011;65503;48.534;9.062;2023-02-23T05:01:03;45.28;;;24.02;;
76610;SDS011;65503;48.534;9.062;2023-02-23T05:03:34;44.50;;;22.98;;
76610;SDS011;65503;48.534;9.062;2023-02-23T05:06:01;41.88;;;21.75;;
76610;SDS011;65503;48.534;9.062;2023-02-23T05:08:28;47.13;;;24.75;;
76610;SDS011;65503;48.534;9.062;2023-02-23T05:10:55;39.88;;;21.40;;
76610;SDS011;65503;48.534;9.062;2023-02-23T05:13:21;41.67;;;22.75;;
76610;SDS011;65503;48.534;9.062;2023-02-23T05:15:48;43.20;;;22.73;;
76610;SDS011;65503;48.534;9.062;2023-02-23T05:18:14;39.47;;;21.65;;
76610;SDS011;65503;48.534;9.062;2023-02-23T05:20:42;37.90;;;21.42;;
76610;SDS011;65503;48.534;9.062;2023-02-23T05:23:10;38.92;;;22.15;;
76610;SDS011;65503;48.534;9.062;2023-02-23T05:25:37;42.58;;;20.45;;
76610;SDS011;65503;48.534;9.062;2023-02-23T05:28:04;35.08;;;19.30;;
76610;SDS011;65503;48.534;9.062;2023-02-23T05:30:31;37.38;;;19.73;;
76610;SDS011;65503;48.534;9.062;2023-02-23T05:32:58;40.83;;;20.15;;
76610;SDS011;65503;48.534;9.062;2023-02-23T05:35:25;36.28;;;19.73;;
76610;SDS011;65503;48.534;9.062;2023-02-23T05:37:52;40.25;;;18.92;;
76610;SDS011;65503;48.534;9.062;2023-02-23T05:40:18;42.00;;;20.45;;
76610;SDS011;65503;48.534;9.062;2023-02-23T05:42:44;40.47;;;20.25;;
76610;SDS011;65503;48.534;9.062;2023-02-23T05:45:11;39.45;;;20.67;;
76610;SDS011;65503;48.534;9.062;2023-02-23T05:47:38;44.92;;;23.67;;
76610;SDS011;65503;48.534;9.062;2023-02-23T05:50:05;43.92;;;23.05;;
76610;SDS011;65503;48.534;9.062;2023-02-23T05:52:35;44.85;;;22.73;;
76610;SDS011;65503;48.534;9.062;2023-02-23T05:55:05;40.65;;;22.77;;
76610;SDS011;65503;48.534;9.062;2023-02-23T05:57:32;45.17;;;23.52;;
76610;SDS011;65503;48.534;9.062;2023-02-23T05:59:58;47.28;;;22.50;;
76610;SDS011;65503;48.534;9.062;2023-02-23T06:02:25;51.65;;;23.73;;
76610;SDS011;65503;48.534;9.062;2023-02-23T06:04:52;45.05;;;21.50;;
76610;SDS011;65503;48.534;9.062;2023-02-23T06:07:18;44.83;;;21.73;;
76610;SDS011;65503;48.534;9.062;2023-02-23T06:09:45;42.17;;;20.52;;
76610;SDS011;65503;48.534;9.062;2023-02-23T06:12:11;43.70;;;21.23;;
76610;SDS011;65503;48.534;9.062;2023-02-23T06:14:38;42.92;;;22.00;;
76610;SDS011;65503;48.534;9.062;2023-02-23T06:17:04;49.47;;;22.95;;
76610;SDS011;65503;48.534;9.062;2023-02-23T06:19:32;42.70;;;20.75;;
76610;SDS011;65503;48.534;9.062;2023-02-23T06:21:59;44.88;;;21.70;;
76610;SDS011;65503;48.534;9.062;2023-02-23T06:24:25;50.65;;;22.15;;
76610;SDS011;65503;48.534;9.062;2023-02-23T06:26:52;50.33;;;22.92;;
76610;SDS011;65503;48.534;9.062;2023-02-23T06:29:18;44.15;;;22.02;;
76610;SDS011;65503;48.534;9.062;2023-02-23T06:31:45;53.00;;;26.73;;
76610;SDS011;65503;48.534;9.062;2023-02-23T06:34:11;49.47;;;24.13;;
76610;SDS011;65503;48.534;9.062;2023-02-23T06:36:38;51.03;;;23.23;;
76610;SDS011;65503;48.534;9.062;2023-02-23T06:39:04;42.70;;;20.85;;
76610;SDS011;65503;48.534;9.062;2023-02-23T06:41:31;42.33;;;20.75;;
76610;SDS011;65503;48.534;9.062;2023-02-23T06:43:58;41.53;;;19.45;;
76610;SDS011;65503;48.534;9.062;2023-02-23T06:46:24;41.53;;;20.95;;
76610;SDS011;65503;48.534;9.062;2023-02-23T06:48:54;53.95;;;24.25;;
76610;SDS011;65503;48.534;9.062;2023-02-23T06:51:22;47.17;;;23.08;;
76610;SDS011;65503;48.534;9.062;2023-02-23T06:53:48;46.15;;;21.33;;
76610;SDS011;65503;48.534;9.062;2023-02-23T06:56:17;44.88;;;21.30;;
76610;SDS011;65503;48.534;9.062;2023-02-23T06:58:44;45.92;;;22.10;;
76610;SDS011;65503;48.534;9.062;2023-02-23T07:01:11;44.60;;;22.42;;
76610;SDS011;65503;48.534;9.062;2023-02-23T07:03:37;43.33;;;22.08;;
76610;SDS011;65503;48.534;9.062;2023-02-23T07:06:04;56.20;;;26.75;;
76610;SDS011;65503;48.534;9.062;2023-02-23T07:08:32;46.90;;;23.25;;
76610;SDS011;65503;48.534;9.062;2023-02-23T07:11:12;45.40;;;23.63;;
76610;SDS011;65503;48.534;9.062;2023-02-23T07:13:39;45.42;;;24.63;;
76610;SDS011;65503;48.534;9.062;2023-02-23T07:16:07;41.17;;;22.48;;
76610;SDS011;65503;48.534;9.062;2023-02-23T07:18:34;40.42;;;24.23;;
76610;SDS011;65503;48.534;9.062;2023-02-23T07:21:01;45.22;;;24.40;;
76610;SDS011;65503;48.534;9.062;2023-02-23T07:23:27;46.38;;;22.80;;
76610;SDS011;65503;48.534;9.062;2023-02-23T07:25:54;38.17;;;20.92;;
76610;SDS011;65503;48.534;9.062;2023-02-23T07:28:21;38.00;;;20.40;;
76610;SDS011;65503;48.534;9.062;2023-02-23T07:30:48;34.70;;;19.88;;
76610;SDS011;65503;48.534;9.062;2023-02-23T07:33:17;34.30;;;18.55;;
76610;SDS011;65503;48.534;9.062;2023-02-23T07:35:43;30.45;;;18.05;;
76610;SDS011;65503;48.534;9.062;2023-02-23T07:38:10;30.27;;;16.83;;
76610;SDS011;65503;48.534;9.062;2023-02-23T07:40:37;30.25;;;17.40;;
76610;SDS011;65503;48.534;9.062;2023-02-23T07:43:05;29.65;;;18.20;;
76610;SDS011;65503;48.534;9.062;2023-02-23T07:45:32;27.88;;;15.93;;
76610;SDS011;65503;48.534;9.062;2023-02-23T07:47:59;27.70;;;15.85;;
76610;SDS011;65503;48.534;9.062;2023-02-23T07:50:25;27.33;;;16.23;;
76610;SDS011;65503;48.534;9.062;2023-02-23T07:52:51;31.20;;;17.98;;
76610;SDS011;65503;48.534;9.062;2023-02-23T07:55:18;31.70;;;16.50;;
76610;SDS011;65503;48.534;9.062;2023-02-23T07:57:46;29.73;;;18.23;;
76610;SDS011;65503;48.534;9.062;2023-02-23T08:00:12;26.58;;;16.08;;
76610;SDS011;65503;48.534;9.062;2023-02-23T08:02:39;27.38;;;15.43;;
76610;SDS011;65503;48.534;9.062;2023-02-23T08:05:06;25.60;;;14.80;;
76610;SDS011;65503;48.534;9.062;2023-02-23T08:07:32;25.58;;;15.48;;
76610;SDS011;65503;48.534;9.062;2023-02-23T08:09:59;24.00;;;14.10;;
76610;SDS011;65503;48.534;9.062;2023-02-23T08:12:25;23.40;;;13.73;;
76610;SDS011;65503;48.534;9.062;2023-02-23T08:14:52;25.17;;;14.20;;
76610;SDS011;65503;48.534;9.062;2023-02-23T08:17:19;23.52;;;14.57;;
76610;SDS011;65503;48.534;9.062;2023-02-23T08:19:45;22.42;;;12.82;;
76610;SDS011;65503;48.534;9.062;2023-02-23T08:22:12;24.38;;;13.50;;
76610;SDS011;65503;48.534;9.062;2023-02-23T08:24:38;22.63;;;15.23;;
76610;SDS011;65503;48.534;9.062;2023-02-23T08:27:05;24.33;;;13.88;;
76610;SDS011;65503;48.534;9.062;2023-02-23T08:29:31;26.40;;;14.45;;
76610;SDS011;65503;48.534;9.062;2023-02-23T08:32:03;24.08;;;14.20;;
76610;SDS011;65503;48.534;9.062;2023-02-23T08:34:30;23.52;;;14.25;;
76610;SDS011;65503;48.534;9.062;2023-02-23T08:36:57;22.58;;;14.20;;
76610;SDS011;65503;48.534;9.062;2023-02-23T08:39:23;23.42;;;15.10;;
76610;SDS011;65503;48.534;9.062;2023-02-23T08:41:50;27.10;;;15.48;;
76610;SDS011;65503;48.534;9.062;2023-02-23T08:44:17;27.42;;;13.65;;
76610;SDS011;65503;48.534;9.062;2023-02-23T08:46:44;24.08;;;13.98;;
76610;SDS011;65503;48.534;9.062;2023-02-23T08:49:11;26.05;;;13.98;;
76610;SDS011;65503;48.534;9.062;2023-02-23T08:51:37;23.83;;;13.90;;
76610;SDS011;65503;48.534;9.062;2023-02-23T08:54:04;19.92;;;11.65;;
76610;SDS011;65503;48.534;9.062;2023-02-23T08:56:35;22.13;;;12.73;;
76610;SDS011;65503;48.534;9.062;2023-02-23T08:59:01;26.17;;;14.75;;
76610;SDS011;65503;48.534;9.062;2023-02-23T09:01:27;26.00;;;15.35;;
76610;SDS011;65503;48.534;9.062;2023-02-23T09:03:54;23.10;;;13.80;;
76610;SDS011;65503;48.534;9.062;2023-02-23T09:06:21;25.55;;;13.73;;
76610;SDS011;65503;48.534;9.062;2023-02-23T09:08:51;21.00;;;13.48;;
76610;SDS011;65503;48.534;9.062;2023-02-23T09:11:18;22.27;;;12.45;;
76610;SDS011;65503;48.534;9.062;2023-02-23T09:13:46;21.42;;;13.05;;
76610;SDS011;65503;48.534;9.062;2023-02-23T09:16:12;19.63;;;12.30;;
76610;SDS011;65503;48.534;9.062;2023-02-23T09:18:39;18.13;;;12.05;;
76610;SDS011;65503;48.534;9.062;2023-02-23T09:21:07;17.98;;;10.90;;
76610;SDS011;65503;48.534;9.062;2023-02-23T09:23:44;16.23;;;9.68;;
76610;SDS011;65503;48.534;9.062;2023-02-23T09:26:13;17.48;;;9.90;;
76610;SDS011;65503;48.534;9.062;2023-02-23T09:28:39;15.73;;;8.90;;
76610;SDS011;65503;48.534;9.062;2023-02-23T09:31:07;13.80;;;7.90;;
76610;SDS011;65503;48.534;9.062;2023-02-23T09:33:38;17.33;;;9.48;;
76610;SDS011;65503;48.534;9.062;2023-02-23T09:36:09;19.63;;;10.02;;
76610;SDS011;65503;48.534;9.062;2023-02-23T09:38:43;13.85;;;7.97;;
76610;SDS011;65503;48.534;9.062;2023-02-23T09:49:23;12.00;;;7.50;;
76610;SDS011;65503;48.534;9.062;2023-02-23T09:51:53;11.98;;;7.30;;
76610;SDS011;65503;48.534;9.062;2023-02-23T09:54:25;15.40;;;7.30;;
76610;SDS011;65503;48.534;9.062;2023-02-23T09:56:55;13.82;;;7.45;;
76610;SDS011;65503;48.534;9.062;2023-02-23T09:59:23;11.13;;;6.72;;
76610;SDS011;65503;48.534;9.062;2023-02-23T10:04:26;11.80;;;5.95;;
76610;SDS011;65503;48.534;9.062;2023-02-23T10:12:31;12.27;;;5.53;;
76610;SDS011;65503;48.534;9.062;2023-02-23T10:15:42;8.10;;;5.05;;
76610;SDS011;65503;48.534;9.062;2023-02-23T10:18:22;11.98;;;5.82;;
76610;SDS011;65503;48.534;9.062;2023-02-23T10:21:15;14.52;;;5.03;;
76610;SDS011;65503;48.534;9.062;2023-02-23T10:23:53;10.40;;;4.85;;
76610;SDS011;65503;48.534;9.062;2023-02-23T10:26:52;14.57;;;6.32;;
76610;SDS011;65503;48.534;9.062;2023-02-23T10:31:50;11.73;;;5.30;;
76610;SDS011;65503;48.534;9.062;2023-02-23T10:34:20;13.73;;;6.03;;
76610;SDS011;65503;48.534;9.062;2023-02-23T10:39:24;12.43;;;5.30;;
76610;SDS011;65503;48.534;9.062;2023-02-23T10:41:51;9.27;;;5.30;;
76610;SDS011;65503;48.534;9.062;2023-02-23T10:44:23;10.27;;;4.95;;
76610;SDS011;65503;48.534;9.062;2023-02-23T10:49:40;12.35;;;4.97;;
76610;SDS011;65503;48.534;9.062;2023-02-23T10:52:20;10.90;;;3.67;;
76610;SDS011;65503;48.534;9.062;2023-02-23T10:54:57;12.77;;;5.10;;
76610;SDS011;65503;48.534;9.062;2023-02-23T10:57:26;11.27;;;4.38;;
76610;SDS011;65503;48.534;9.062;2023-02-23T11:02:31;10.23;;;4.30;;
76610;SDS011;65503;48.534;9.062;2023-02-23T11:04:59;8.02;;;2.78;;
76610;SDS011;65503;48.534;9.062;2023-02-23T11:07:27;10.95;;;3.50;;
76610;SDS011;65503;48.534;9.062;2023-02-23T11:09:58;11.73;;;3.58;;
76610;SDS011;65503;48.534;9.062;2023-02-23T11:12:44;6.60;;;3.45;;
76610;SDS011;65503;48.534;9.062;2023-02-23T11:18:04;9.55;;;2.97;;
76610;SDS011;65503;48.534;9.062;2023-02-23T11:23:08;14.00;;;3.35;;
76610;SDS011;65503;48.534;9.062;2023-02-23T11:25:40;10.68;;;3.22;;
76610;SDS011;65503;48.534;9.062;2023-02-23T11:28:15;9.50;;;2.72;;
76610;SDS011;65503;48.534;9.062;2023-02-23T11:30:46;8.13;;;1.90;;
76610;SDS011;65503;48.534;9.062;2023-02-23T11:33:15;5.93;;;2.10;;
76610;SDS011;65503;48.534;9.062;2023-02-23T11:35:44;6.18;;;2.53;;
76610;SDS011;65503;48.534;9.062;2023-02-23T11:41:05;8.95;;;3.20;;
76610;SDS011;65503;48.534;9.062;2023-02-23T11:43:46;12.90;;;3.50;;
76610;SDS011;65503;48.534;9.062;2023-02-23T11:46:17;11.13;;;3.60;;
76610;SDS011;65503;48.534;9.062;2023-02-23T11:48:58;10.82;;;3.90;;
76610;SDS011;65503;48.534;9.062;2023-02-23T11:51:31;8.73;;;3.08;;
76610;SDS011;65503;48.534;9.062;2023-02-23T11:54:00;8.18;;;4.07;;
76610;SDS011;65503;48.534;9.062;2023-02-23T11:56:31;8.30;;;3.70;;
76610;SDS011;65503;48.534;9.062;2023-02-23T11:59:03;11.13;;;4.40;;
76610;SDS011;65503;48.534;9.062;2023-02-23T12:01:39;12.02;;;4.40;;
76610;SDS011;65503;48.534;9.062;2023-02-23T12:09:46;9.35;;;4.05;;
76610;SDS011;65503;48.534;9.062;2023-02-23T12:12:19;11.43;;;4.88;;
76610;SDS011;65503;48.534;9.062;2023-02-23T12:14:50;9.73;;;4.07;;
76610;SDS011;65503;48.534;9.062;2023-02-23T12:17:25;9.60;;;4.22;;
76610;SDS011;65503;48.534;9.062;2023-02-23T12:20:02;8.68;;;3.88;;
76610;SDS011;65503;48.534;9.062;2023-02-23T12:22:38;11.52;;;4.78;;
76610;SDS011;65503;48.534;9.062;2023-02-23T12:25:10;9.52;;;4.05;;
76610;SDS011;65503;48.534;9.062;2023-02-23T12:30:50;10.80;;;3.42;;
76610;SDS011;65503;48.534;9.062;2023-02-23T12:36:01;9.88;;;3.30;;
76610;SDS011;65503;48.534;9.062;2023-02-23T12:41:04;8.45;;;3.33;;
76610;SDS011;65503;48.534;9.062;2023-02-23T12:43:41;13.00;;;3.88;;
76610;SDS011;65503;48.534;9.062;2023-02-23T12:46:20;11.25;;;3.42;;
76610;SDS011;65503;48.534;9.062;2023-02-23T12:54:01;14.70;;;3.80;;
76610;SDS011;65503;48.534;9.062;2023-02-23T13:04:25;8.60;;;3.60;;
76610;SDS011;65503;48.534;9.062;2023-02-23T13:07:11;11.55;;;3.40;;
76610;SDS011;65503;48.534;9.062;2023-02-23T13:09:44;10.82;;;3.47;;
76610;SDS011;65503;48.534;9.062;2023-02-23T13:15:14;7.80;;;3.67;;
76610;SDS011;65503;48.534;9.062;2023-02-23T13:25:50;9.85;;;4.03;;
76610;SDS011;65503;48.534;9.062;2023-02-23T13:31:57;10.52;;;4.07;;
76610;SDS011;65503;48.534;9.062;2023-02-23T13:34:10;14.50;;;5.45;;
76610;SDS011;65503;48.534;9.062;2023-02-23T13:36:42;10.13;;;3.90;;
76610;SDS011;65503;48.534;9.062;2023-02-23T13:53:44;12.27;;;5.18;;
76610;SDS011;65503;48.534;9.062;2023-02-23T13:57:11;12.25;;;5.13;;
76610;SDS011;65503;48.534;9.062;2023-02-23T13:59:18;9.15;;;4.22;;
76610;SDS011;65503;48.534;9.062;2023-02-23T14:01:51;9.23;;;3.78;;
76610;SDS011;65503;48.534;9.062;2023-02-23T14:04:20;9.27;;;3.45;;
76610;SDS011;65503;48.534;9.062;2023-02-23T14:09:54;11.82;;;4.15;;
76610;SDS011;65503;48.534;9.062;2023-02-23T14:17:58;9.27;;;4.68;;
76610;SDS011;65503;48.534;9.062;2023-02-23T14:28:24;15.23;;;5.43;;
76610;SDS011;65503;48.534;9.062;2023-02-23T14:38:50;10.18;;;4.55;;
76610;SDS011;65503;48.534;9.062;2023-02-23T14:41:44;14.50;;;4.90;;
76610;SDS011;65503;48.534;9.062;2023-02-23T14:47:07;9.25;;;4.07;;
76610;SDS011;65503;48.534;9.062;2023-02-23T14:49:41;12.35;;;4.43;;
76610;SDS011;65503;48.534;9.062;2023-02-23T14:52:23;12.05;;;4.82;;
76610;SDS011;65503;48.534;9.062;2023-02-23T14:55:05;11.75;;;5.00;;
76610;SDS011;65503;48.534;9.062;2023-02-23T14:57:42;13.95;;;5.47;;
76610;SDS011;65503;48.534;9.062;2023-02-23T15:05:26;10.13;;;4.30;;
76610;SDS011;65503;48.534;9.062;2023-02-23T15:07:58;11.23;;;4.18;;
76610;SDS011;65503;48.534;9.062;2023-02-23T15:10:29;11.52;;;4.93;;
76610;SDS011;65503;48.534;9.062;2023-02-23T15:13:08;11.05;;;4.53;;
76610;SDS011;65503;48.534;9.062;2023-02-23T15:15:39;13.57;;;3.60;;
76610;SDS011;65503;48.534;9.062;2023-02-23T15:21:33;9.35;;;3.13;;
76610;SDS011;65503;48.534;9.062;2023-02-23T15:24:11;8.05;;;3.33;;
76610;SDS011;65503;48.534;9.062;2023-02-23T15:26:41;13.15;;;4.00;;
76610;SDS011;65503;48.534;9.062;2023-02-23T15:31:35;5.95;;;2.53;;
76610;SDS011;65503;48.534;9.062;2023-02-23T15:34:09;7.78;;;2.92;;
76610;SDS011;65503;48.534;9.062;2023-02-23T15:36:36;8.40;;;3.00;;
76610;SDS011;65503;48.534;9.062;2023-02-23T15:39:06;8.48;;;3.35;;
76610;SDS011;65503;48.534;9.062;2023-02-23T15:41:40;9.45;;;3.30;;
76610;SDS011;65503;48.534;9.062;2023-02-23T15:44:11;7.70;;;2.80;;
76610;SDS011;65503;48.534;9.062;2023-02-23T15:46:41;6.60;;;2.65;;
76610;SDS011;65503;48.534;9.062;2023-02-23T15:49:11;8.10;;;3.28;;
76610;SDS011;65503;48.534;9.062;2023-02-23T15:51:43;9.60;;;3.22;;
76610;SDS011;65503;48.534;9.062;2023-02-23T15:54:21;11.10;;;3.10;;
76610;SDS011;65503;48.534;9.062;2023-02-23T15:56:57;10.40;;;3.15;;
76610;SDS011;65503;48.534;9.062;2023-02-23T15:59:33;6.70;;;2.92;;
76610;SDS011;65503;48.534;9.062;2023-02-23T16:02:02;6.65;;;2.70;;
76610;SDS011;65503;48.534;9.062;2023-02-23T16:04:39;8.60;;;4.00;;
76610;SDS011;65503;48.534;9.062;2023-02-23T16:07:15;8.35;;;3.50;;
76610;SDS011;65503;48.534;9.062;2023-02-23T16:09:49;10.75;;;3.83;;
76610;SDS011;65503;48.534;9.062;2023-02-23T16:14:54;9.73;;;3.97;;
76610;SDS011;65503;48.534;9.062;2023-02-23T16:17:29;9.88;;;3.80;;
76610;SDS011;65503;48.534;9.062;2023-02-23T16:20:19;8.95;;;3.70;;
76610;SDS011;65503;48.534;9.062;2023-02-23T16:23:04;11.52;;;4.10;;
76610;SDS011;65503;48.534;9.062;2023-02-23T16:25:32;7.85;;;3.70;;
76610;SDS011;65503;48.534;9.062;2023-02-23T16:30:37;11.27;;;3.42;;
76610;SDS011;65503;48.534;9.062;2023-02-23T16:33:20;9.75;;;4.25;;
76610;SDS011;65503;48.534;9.062;2023-02-23T16:35:53;9.15;;;4.32;;
76610;SDS011;65503;48.534;9.062;2023-02-23T16:41:17;10.45;;;3.80;;
76610;SDS011;65503;48.534;9.062;2023-02-23T16:43:46;10.50;;;4.53;;
76610;SDS011;65503;48.534;9.062;2023-02-23T16:46:15;10.63;;;4.03;;
76610;SDS011;65503;48.534;9.062;2023-02-23T16:48:43;10.70;;;4.03;;
76610;SDS011;65503;48.534;9.062;2023-02-23T16:51:13;13.55;;;4.60;;
76610;SDS011;65503;48.534;9.062;2023-02-23T16:53:41;12.32;;;3.97;;
76610;SDS011;65503;48.534;9.062;2023-02-23T16:56:13;7.95;;;4.15;;
76610;SDS011;65503;48.534;9.062;2023-02-23T16:58:43;10.57;;;3.50;;
76610;SDS011;65503;48.534;9.062;2023-02-23T17:01:12;11.07;;;3.63;;
76610;SDS011;65503;48.534;9.062;2023-02-23T17:03:39;6.80;;;3.30;;
76610;SDS011;65503;48.534;9.062;2023-02-23T17:06:18;8.00;;;2.63;;
76610;SDS011;65503;48.534;9.062;2023-02-23T17:08:45;9.20;;;3.88;;
76610;SDS011;65503;48.534;9.062;2023-02-23T17:11:22;9.30;;;3.33;;
76610;SDS011;65503;48.534;9.062;2023-02-23T17:13:49;7.30;;;2.85;;
76610;SDS011;65503;48.534;9.062;2023-02-23T17:16:15;10.23;;;3.03;;
76610;SDS011;65503;48.534;9.062;2023-02-23T17:18:43;7.97;;;3.30;;
76610;SDS011;65503;48.534;9.062;2023-02-23T17:21:11;10.25;;;3.45;;
76610;SDS011;65503;48.534;9.062;2023-02-23T17:23:39;9.63;;;3.10;;
76610;SDS011;65503;48.534;9.062;2023-02-23T17:26:17;8.38;;;3.28;;
76610;SDS011;65503;48.534;9.062;2023-02-23T17:28:45;7.70;;;3.67;;
76610;SDS011;65503;48.534;9.062;2023-02-23T17:31:13;9.95;;;3.88;;
76610;SDS011;65503;48.534;9.062;2023-02-23T17:33:41;7.43;;;3.60;;
76610;SDS011;65503;48.534;9.062;2023-02-23T17:36:10;8.60;;;4.20;;
76610;SDS011;65503;48.534;9.062;2023-02-23T17:38:38;8.25;;;3.50;;